createdAt,value
2019-05-17T00:02:18.411Z,99.90
2019-05-17T00:04:49.184Z,99.90
2019-05-17T00:07:20.032Z,99.90
2019-05-17T00:09:51.061Z,99.90
2019-05-17T00:12:22.280Z,99.90
2019-05-17T00:14:52.994Z,99.90
2019-05-17T00:17:23.835Z,99.90
2019-05-17T00:19:56.707Z,99.90
2019-05-17T00:22:27.081Z,99.90
2019-05-17T00:24:57.950Z,99.90
2019-05-17T00:27:28.782Z,99.90
2019-05-17T00:30:01.706Z,99.90
2019-05-17T00:32:32.817Z,99.90
2019-05-17T00:35:04.010Z,99.90
2019-05-17T00:37:37.023Z,99.90
2019-05-17T00:40:07.678Z,99.90
2019-05-17T00:42:38.489Z,99.90
2019-05-17T00:45:09.927Z,99.90
2019-05-17T00:47:40.948Z,99.90
2019-05-17T00:50:11.922Z,99.90
2019-05-17T00:52:42.554Z,99.90
2019-05-17T00:55:13.766Z,99.90
2019-05-17T00:57:47.235Z,99.90
2019-05-17T01:00:18.744Z,99.90
2019-05-17T01:02:49.891Z,99.90
2019-05-17T01:05:20.626Z,99.90
2019-05-17T01:07:51.380Z,99.90
2019-05-17T01:10:22.198Z,99.90
2019-05-17T01:12:52.974Z,99.90
2019-05-17T01:15:23.980Z,99.90
2019-05-17T01:17:56.276Z,99.90
2019-05-17T01:20:27.727Z,99.90
2019-05-17T01:22:58.453Z,99.90
2019-05-17T01:25:29.299Z,99.90
2019-05-17T01:28:00.080Z,99.90
2019-05-17T01:30:30.922Z,99.90
2019-05-17T01:33:01.952Z,99.90
2019-05-17T01:35:32.690Z,99.90
2019-05-17T01:38:03.544Z,99.90
2019-05-17T01:40:34.299Z,99.90
2019-05-17T01:43:07.555Z,99.90
2019-05-17T01:45:37.745Z,99.90
2019-05-17T01:48:08.637Z,99.90
2019-05-17T01:50:39.506Z,99.90
2019-05-17T01:53:10.541Z,99.90
2019-05-17T01:55:41.393Z,99.90
2019-05-17T01:58:12.218Z,99.90
2019-05-17T02:00:42.951Z,99.90
2019-05-17T02:03:13.688Z,99.90
2019-05-17T02:05:44.474Z,99.90
2019-05-17T02:08:17.075Z,99.90
2019-05-17T02:10:47.882Z,99.90
2019-05-17T02:13:18.625Z,99.90
2019-05-17T02:15:49.687Z,99.90
2019-05-17T02:18:20.629Z,99.90
2019-05-17T02:20:51.432Z,99.90
2019-05-17T02:23:22.360Z,99.90
2019-05-17T02:25:53.494Z,99.90
2019-05-17T02:28:24.253Z,99.90
2019-05-17T02:30:55.563Z,99.90
2019-05-17T02:33:26.830Z,99.90
2019-05-17T02:35:57.645Z,99.90
2019-05-17T02:38:28.634Z,99.90
2019-05-17T02:41:02.926Z,99.90
2019-05-17T02:43:33.565Z,99.90
2019-05-17T02:46:04.667Z,99.90
2019-05-17T02:48:35.471Z,99.90
2019-05-17T02:51:07.485Z,99.90
2019-05-17T02:53:38.241Z,99.90
2019-05-17T02:56:12.991Z,99.90
2019-05-17T02:58:43.816Z,99.90
2019-05-17T03:01:14.588Z,99.90
2019-05-17T03:03:46.212Z,99.90
2019-05-17T03:06:17.573Z,99.90
2019-05-17T03:08:48.456Z,99.90
2019-05-17T03:11:22.795Z,99.90
2019-05-17T03:13:53.643Z,99.90
2019-05-17T03:16:24.361Z,99.90
2019-05-17T03:18:56.191Z,99.90
2019-05-17T03:21:26.984Z,99.90
2019-05-17T03:23:58.220Z,99.90
2019-05-17T03:26:29.026Z,99.90
2019-05-17T03:29:02.861Z,99.90
2019-05-17T03:31:41.471Z,99.90
2019-05-17T03:34:06.294Z,99.90
2019-05-17T03:36:37.659Z,99.90
2019-05-17T03:39:08.516Z,99.90
2019-05-17T03:41:42.649Z,99.90
2019-05-17T03:44:13.669Z,99.90
2019-05-17T03:46:44.267Z,99.90
2019-05-17T03:49:15.127Z,99.90
2019-05-17T03:51:46.112Z,99.90
2019-05-17T03:54:16.849Z,99.90
2019-05-17T03:56:47.641Z,99.90
2019-05-17T03:59:18.401Z,99.90
2019-05-17T04:01:52.537Z,99.90
2019-05-17T04:04:23.026Z,99.90
2019-05-17T04:06:54.274Z,99.90
2019-05-17T04:09:26.208Z,99.90
2019-05-17T04:11:57.298Z,99.90
2019-05-17T04:14:29.474Z,99.90
2019-05-17T04:17:03.000Z,99.90
2019-05-17T04:19:33.770Z,99.90
2019-05-17T04:22:04.689Z,99.90
2019-05-17T04:24:38.502Z,99.90
2019-05-17T04:27:09.193Z,99.90
2019-05-17T04:29:42.538Z,99.90
2019-05-17T04:32:13.132Z,99.90
2019-05-17T04:34:44.224Z,99.90
2019-05-17T04:37:15.084Z,99.90
2019-05-17T04:39:45.786Z,99.90
2019-05-17T04:42:16.520Z,99.90
2019-05-17T04:44:47.744Z,99.90
2019-05-17T04:47:18.649Z,99.90
2019-05-17T04:49:53.321Z,99.90
2019-05-17T04:52:23.430Z,99.90
2019-05-17T04:54:54.483Z,99.90
2019-05-17T04:57:25.447Z,99.90
2019-05-17T04:59:56.693Z,99.90
2019-05-17T05:02:27.806Z,99.90
2019-05-17T05:04:58.878Z,99.90
2019-05-17T05:07:29.824Z,99.90
2019-05-17T05:10:03.183Z,99.90
2019-05-17T05:12:34.570Z,99.90
2019-05-17T05:15:06.170Z,99.90
2019-05-17T05:17:36.905Z,99.90
2019-05-17T05:20:08.301Z,99.90
2019-05-17T05:22:42.921Z,99.90
2019-05-17T05:25:16.773Z,99.90
2019-05-17T05:27:47.739Z,99.90
2019-05-17T05:30:18.567Z,99.90
2019-05-17T05:32:49.511Z,99.90
2019-05-17T05:35:22.311Z,99.90
2019-05-17T05:37:52.730Z,99.90
2019-05-17T05:40:23.780Z,99.90
2019-05-17T05:42:54.626Z,99.90
2019-05-17T05:45:25.363Z,99.90
2019-05-17T05:47:56.315Z,99.90
2019-05-17T05:50:27.108Z,99.90
2019-05-17T05:52:58.282Z,99.90
2019-05-17T05:55:31.972Z,99.90
2019-05-17T05:58:02.965Z,99.90
2019-05-17T06:00:34.148Z,99.90
2019-05-17T06:03:04.928Z,99.90
2019-05-17T06:05:35.744Z,99.90
2019-05-17T06:08:06.588Z,99.90
2019-05-17T06:10:39.511Z,99.90
2019-05-17T06:13:09.945Z,99.90
2019-05-17T06:15:43.035Z,99.90
2019-05-17T06:18:13.477Z,99.90
2019-05-17T06:20:44.534Z,99.90
2019-05-17T06:23:15.682Z,99.90
2019-05-17T06:25:46.640Z,99.90
2019-05-17T06:28:16.765Z,99.90
2019-05-17T06:30:47.801Z,99.90
2019-05-17T06:33:27.953Z,99.90
2019-05-17T06:35:52.565Z,99.90
2019-05-17T06:38:23.490Z,99.90
2019-05-17T06:40:54.334Z,99.90
2019-05-17T06:43:25.803Z,99.90
2019-05-17T06:45:56.599Z,99.90
2019-05-17T06:48:27.953Z,99.90
2019-05-17T06:50:58.966Z,99.90
2019-05-17T06:53:32.151Z,99.90
2019-05-17T06:56:02.948Z,99.90
2019-05-17T06:58:34.446Z,99.90
2019-05-17T07:01:05.431Z,99.90
2019-05-17T07:03:36.884Z,99.90
2019-05-17T07:06:10.936Z,99.90
2019-05-17T07:08:41.865Z,99.90
2019-05-17T07:11:12.783Z,99.90
2019-05-17T07:13:46.925Z,99.90
2019-05-17T07:16:19.681Z,99.90
2019-05-17T07:18:50.703Z,99.90
2019-05-17T07:21:21.562Z,99.90
2019-05-17T07:23:53.326Z,99.90
2019-05-17T07:26:24.299Z,99.90
2019-05-17T07:28:55.045Z,99.90
2019-05-17T07:31:25.976Z,99.90
2019-05-17T07:33:56.911Z,99.90
2019-05-17T07:36:30.477Z,99.90
2019-05-17T07:39:00.946Z,99.90
2019-05-17T07:41:33.514Z,99.90
2019-05-17T07:44:04.533Z,99.90
2019-05-17T07:46:35.229Z,99.90
2019-05-17T07:49:05.944Z,99.90
2019-05-17T07:51:36.859Z,99.90
2019-05-17T07:54:10.269Z,99.90
2019-05-17T07:56:40.536Z,99.90
2019-05-17T07:59:11.374Z,99.90
2019-05-17T08:01:42.259Z,99.90
2019-05-17T08:04:13.195Z,99.90
2019-05-17T08:06:43.893Z,99.90
2019-05-17T08:09:14.685Z,99.90
2019-05-17T08:11:45.442Z,99.90
2019-05-17T08:14:29.298Z,99.90
2019-05-17T08:16:50.203Z,99.90
2019-05-17T08:19:22.294Z,99.90
2019-05-17T08:21:53.119Z,99.90
2019-05-17T08:24:23.924Z,99.90
2019-05-17T08:26:54.736Z,99.90
2019-05-17T08:29:25.887Z,99.90
2019-05-17T08:31:56.744Z,99.90
2019-05-17T08:34:29.307Z,99.90
2019-05-17T08:37:01.082Z,99.90
2019-05-17T08:39:32.129Z,99.90
2019-05-17T08:42:02.924Z,99.90
2019-05-17T08:44:33.813Z,99.90
2019-05-17T08:47:05.683Z,99.90
2019-05-17T08:49:36.550Z,99.90
2019-05-17T08:52:09.781Z,99.90
2019-05-17T08:54:42.888Z,99.90
2019-05-17T08:57:13.736Z,99.90
2019-05-17T08:59:44.480Z,99.90
2019-05-17T09:02:15.289Z,99.90
2019-05-17T09:04:45.995Z,99.90
2019-05-17T09:07:16.753Z,99.90
2019-05-17T09:09:49.987Z,99.90
2019-05-17T09:12:20.660Z,99.90
2019-05-17T09:14:52.590Z,99.90
2019-05-17T09:17:23.308Z,99.90
2019-05-17T09:19:54.508Z,99.90
2019-05-17T09:22:25.319Z,99.90
2019-05-17T09:24:56.056Z,99.90
2019-05-17T09:27:27.117Z,99.90
2019-05-17T09:29:59.880Z,99.90
2019-05-17T09:32:30.267Z,99.90
2019-05-17T09:35:01.071Z,99.90
2019-05-17T09:37:32.069Z,99.90
2019-05-17T09:40:02.870Z,99.90
2019-05-17T09:42:33.639Z,99.90
2019-05-17T09:45:04.711Z,99.90
2019-05-17T09:47:35.587Z,99.90
2019-05-17T09:50:06.807Z,99.90
2019-05-17T09:52:37.568Z,99.90
2019-05-17T09:55:09.873Z,99.90
2019-05-17T09:57:41.255Z,99.90
2019-05-17T10:00:13.739Z,95.50
2019-05-17T10:02:44.662Z,97.40
2019-05-17T10:05:15.410Z,93.20
2019-05-17T10:07:46.166Z,88.30
2019-05-17T10:10:20.065Z,91.70
2019-05-17T10:12:50.076Z,96.00
2019-05-17T10:15:21.322Z,94.80
2019-05-17T10:17:52.133Z,92.60
2019-05-17T10:20:22.976Z,89.20
2019-05-17T10:22:53.862Z,82.80
2019-05-17T10:25:24.735Z,91.20
2019-05-17T10:27:56.349Z,93.50
2019-05-17T10:30:29.885Z,90.50
2019-05-17T10:33:00.206Z,81.80
2019-05-17T10:35:30.991Z,82.40
2019-05-17T10:38:01.912Z,89.40
2019-05-17T10:40:33.282Z,94.10
2019-05-17T10:43:04.154Z,97.90
2019-05-17T10:45:35.171Z,99.90
2019-05-17T10:48:06.073Z,99.90
2019-05-17T10:50:36.869Z,99.90
2019-05-17T10:53:09.954Z,99.90
2019-05-17T10:55:40.408Z,99.90
2019-05-17T10:58:11.537Z,99.90
2019-05-17T11:00:42.478Z,99.90
2019-05-17T11:03:13.283Z,99.90
2019-05-17T11:05:44.252Z,99.90
2019-05-17T11:08:15.250Z,99.90
2019-05-17T11:10:46.114Z,99.90
2019-05-17T11:13:17.031Z,99.90
2019-05-17T11:15:47.723Z,99.90
2019-05-17T11:18:18.853Z,99.90
2019-05-17T11:20:49.810Z,99.60
2019-05-17T11:23:20.545Z,99.90
2019-05-17T11:25:51.634Z,99.90
2019-05-17T11:28:22.382Z,99.90
2019-05-17T11:30:53.500Z,99.90
2019-05-17T11:33:24.192Z,99.90
2019-05-17T11:35:54.935Z,99.90
2019-05-17T11:38:26.288Z,99.90
2019-05-17T11:40:57.095Z,99.90
2019-05-17T11:43:27.848Z,99.90
2019-05-17T11:45:58.658Z,99.90
2019-05-17T11:48:29.478Z,99.90
2019-05-17T11:51:00.156Z,99.90
2019-05-17T11:53:30.938Z,99.90
2019-05-17T11:56:01.794Z,99.90
2019-05-17T11:58:32.778Z,99.90
2019-05-17T12:01:03.968Z,99.90
2019-05-17T12:03:35.277Z,99.90
2019-05-17T12:06:06.225Z,99.90
2019-05-17T12:08:37.634Z,99.90
2019-05-17T12:11:08.534Z,99.90
2019-05-17T12:13:39.292Z,99.90
2019-05-17T12:16:10.030Z,99.90
2019-05-17T12:18:40.937Z,99.90
2019-05-17T12:21:11.976Z,99.90
2019-05-17T12:23:45.576Z,99.90
2019-05-17T12:26:16.281Z,99.90
2019-05-17T12:28:47.447Z,99.90
2019-05-17T12:31:18.192Z,99.90
2019-05-17T12:33:50.188Z,99.90
2019-05-17T12:36:21.233Z,99.90
2019-05-17T12:38:52.271Z,99.90
2019-05-17T12:41:23.072Z,99.90
2019-05-17T12:43:54.029Z,99.90
2019-05-17T12:46:25.049Z,99.90
2019-05-17T12:48:55.785Z,99.90
2019-05-17T12:51:26.479Z,99.90
2019-05-17T12:53:57.400Z,99.90
2019-05-17T12:56:28.217Z,99.90
2019-05-17T12:58:59.021Z,99.90
2019-05-17T13:01:29.762Z,99.90
2019-05-17T13:04:00.520Z,99.90
2019-05-17T13:06:31.739Z,99.90
2019-05-17T13:09:04.864Z,99.90
2019-05-17T13:11:35.771Z,99.90
2019-05-17T13:14:06.653Z,99.90
2019-05-17T13:16:37.478Z,99.90
2019-05-17T13:19:08.324Z,99.90
2019-05-17T13:21:39.050Z,99.90
2019-05-17T13:24:09.779Z,99.90
2019-05-17T13:26:40.643Z,99.90
2019-05-17T13:29:11.348Z,99.90
2019-05-17T13:31:42.837Z,99.90
2019-05-17T13:34:13.643Z,99.90
2019-05-17T13:36:44.701Z,99.90
2019-05-17T13:39:15.646Z,99.90
2019-05-17T13:41:46.690Z,99.90
2019-05-17T13:44:17.600Z,99.90
2019-05-17T13:46:48.314Z,99.90
2019-05-17T13:49:19.042Z,99.90
2019-05-17T13:51:49.843Z,99.90
2019-05-17T13:54:20.728Z,99.90
2019-05-17T13:56:51.436Z,99.90
2019-05-17T13:59:22.787Z,99.90
2019-05-17T14:01:53.649Z,99.90
2019-05-17T14:04:24.432Z,99.90
2019-05-17T14:06:55.180Z,99.90
2019-05-17T14:09:26.140Z,99.90
2019-05-17T14:11:57.257Z,99.90
2019-05-17T14:14:28.032Z,99.90
2019-05-17T14:16:58.842Z,99.90
2019-05-17T14:19:29.603Z,99.90
2019-05-17T14:22:00.556Z,99.90
2019-05-17T14:24:31.374Z,99.90
2019-05-17T14:27:02.195Z,99.90
2019-05-17T14:29:33.106Z,99.90
2019-05-17T14:32:04.228Z,99.90
2019-05-17T14:34:35.074Z,99.90
2019-05-17T14:37:07.715Z,99.90
2019-05-17T14:39:38.348Z,99.90
2019-05-17T14:42:09.087Z,99.90
2019-05-17T14:44:40.059Z,99.90
2019-05-17T14:47:10.822Z,99.90
2019-05-17T14:49:41.762Z,99.90
2019-05-17T14:52:12.525Z,99.90
2019-05-17T14:54:43.785Z,99.90
2019-05-17T14:57:14.735Z,99.90
2019-05-17T14:59:45.611Z,99.90
2019-05-17T15:02:16.437Z,99.90
2019-05-17T15:04:47.424Z,99.90
2019-05-17T15:07:18.264Z,99.90
2019-05-17T15:09:49.525Z,99.90
2019-05-17T15:12:28.338Z,99.90
2019-05-17T15:14:53.378Z,99.90
2019-05-17T15:17:25.163Z,99.90
2019-05-17T15:19:56.019Z,99.90
2019-05-17T15:22:27.039Z,99.90
2019-05-17T15:24:58.116Z,99.90
2019-05-17T15:27:28.913Z,99.90
2019-05-17T15:29:59.931Z,99.90
2019-05-17T15:32:32.307Z,99.90
2019-05-17T15:35:03.470Z,99.90
2019-05-17T15:37:35.012Z,99.90
2019-05-17T15:40:06.242Z,99.90
2019-05-17T15:42:44.317Z,99.90
2019-05-17T15:45:09.684Z,99.90
2019-05-17T15:47:40.547Z,99.90
2019-05-17T15:50:13.693Z,99.90
2019-05-17T15:52:45.524Z,99.90
2019-05-17T15:55:17.870Z,99.90
2019-05-17T15:57:48.585Z,99.90
2019-05-17T16:00:19.563Z,99.90
2019-05-17T16:02:50.632Z,99.90
2019-05-17T16:05:21.355Z,99.90
2019-05-17T16:07:52.415Z,99.90
2019-05-17T16:10:23.945Z,99.90
2019-05-17T16:13:02.410Z,99.90
2019-05-17T16:15:27.743Z,99.90
2019-05-17T16:17:58.500Z,99.90
2019-05-17T16:20:29.211Z,99.90
2019-05-17T16:23:00.120Z,99.90
2019-05-17T16:25:33.848Z,99.90
2019-05-17T16:28:03.606Z,99.90
2019-05-17T16:30:36.083Z,99.90
2019-05-17T16:33:06.802Z,99.90
2019-05-17T16:35:37.813Z,99.90
2019-05-17T16:38:11.613Z,99.90
2019-05-17T16:40:42.363Z,99.90
2019-05-17T16:43:18.074Z,99.90
2019-05-17T16:45:46.276Z,99.90
2019-05-17T16:48:17.163Z,99.90
2019-05-17T16:50:57.669Z,99.90
2019-05-17T16:53:42.636Z,99.90
2019-05-17T16:56:33.545Z,99.90
2019-05-17T16:59:04.830Z,99.90
2019-05-17T17:01:35.802Z,99.90
2019-05-17T17:04:07.016Z,99.90
2019-05-17T17:06:38.873Z,99.90
2019-05-17T17:09:09.868Z,99.90
2019-05-17T17:11:41.000Z,99.90
2019-05-17T17:14:12.108Z,99.90
2019-05-17T17:16:43.081Z,99.90
2019-05-17T17:19:13.962Z,99.90
2019-05-17T17:21:44.888Z,99.90
2019-05-17T17:24:15.628Z,99.90
2019-05-17T17:26:46.406Z,99.90
2019-05-17T17:29:17.166Z,99.90
2019-05-17T17:31:47.932Z,99.90
2019-05-17T17:34:18.670Z,99.90
2019-05-17T17:36:49.716Z,99.90
2019-05-17T17:39:20.416Z,99.90
2019-05-17T17:41:51.246Z,99.90
2019-05-17T17:44:21.921Z,99.90
2019-05-17T17:46:52.810Z,99.90
2019-05-17T17:49:23.613Z,99.90
2019-05-17T17:51:54.505Z,99.90
2019-05-17T17:54:25.282Z,99.90
2019-05-17T17:56:56.079Z,99.90
2019-05-17T17:59:26.968Z,99.90
2019-05-17T18:01:57.911Z,99.90
2019-05-17T18:04:28.646Z,99.90
2019-05-17T18:06:59.543Z,99.90
2019-05-17T18:09:30.354Z,99.90
2019-05-17T18:12:01.531Z,99.90
2019-05-17T18:14:32.425Z,99.90
2019-05-17T18:17:03.179Z,99.90
2019-05-17T18:19:34.181Z,99.90
2019-05-17T18:22:05.485Z,99.90
2019-05-17T18:24:36.428Z,99.90
2019-05-17T18:27:14.713Z,99.90
2019-05-17T18:29:48.883Z,99.90
2019-05-17T18:32:20.536Z,99.90
2019-05-17T18:34:54.521Z,99.90
2019-05-17T18:37:25.625Z,99.90
2019-05-17T18:39:56.570Z,99.90
2019-05-17T18:42:27.918Z,99.90
2019-05-17T18:44:59.435Z,99.90
2019-05-17T18:47:30.485Z,99.90
2019-05-17T18:50:01.761Z,99.90
2019-05-17T18:52:32.961Z,99.90
2019-05-17T18:55:04.489Z,99.90
2019-05-17T18:57:36.075Z,99.90
2019-05-17T19:00:11.131Z,99.90
2019-05-17T19:02:42.484Z,99.90
2019-05-17T19:05:15.958Z,99.90
2019-05-17T19:07:50.093Z,99.90
2019-05-17T19:10:22.310Z,99.90
2019-05-17T19:12:53.365Z,99.90
2019-05-17T19:15:27.499Z,99.90
2019-05-17T19:17:58.824Z,99.90
2019-05-17T19:20:30.874Z,99.90
2019-05-17T19:23:02.631Z,99.90
2019-05-17T19:25:34.954Z,99.90
2019-05-17T19:28:08.009Z,99.90
2019-05-17T19:30:40.616Z,99.90
2019-05-17T19:33:14.295Z,99.90
2019-05-17T19:35:46.512Z,99.90
2019-05-17T19:38:22.284Z,99.90
2019-05-17T19:40:56.530Z,99.90
2019-05-17T19:43:27.621Z,99.90
2019-05-17T19:46:00.079Z,99.90
2019-05-17T19:48:40.009Z,99.90
2019-05-17T19:51:12.843Z,99.90
2019-05-17T19:53:50.039Z,99.90
2019-05-17T19:56:26.814Z,99.90
2019-05-17T19:58:59.349Z,99.90
2019-05-17T20:01:30.417Z,99.90
2019-05-17T20:04:11.906Z,99.90
2019-05-17T20:06:56.498Z,99.90
2019-05-17T20:09:27.812Z,99.90
2019-05-17T20:12:10.791Z,99.90
2019-05-17T20:15:16.718Z,99.90
2019-05-17T20:17:40.938Z,99.90
2019-05-17T20:20:12.088Z,99.90
2019-05-17T20:22:44.058Z,99.90
2019-05-17T20:25:15.095Z,99.90
2019-05-17T20:27:46.071Z,99.90
2019-05-17T20:30:18.349Z,99.90
2019-05-17T20:32:49.246Z,99.90
2019-05-17T20:35:20.391Z,99.90
2019-05-17T20:37:52.020Z,99.90
2019-05-17T20:40:25.901Z,99.90
2019-05-17T20:43:01.472Z,99.90
2019-05-17T20:45:33.755Z,99.90
2019-05-17T20:48:08.247Z,99.90
2019-05-17T20:50:44.139Z,99.90
2019-05-17T20:53:19.033Z,99.90
2019-05-17T20:55:47.616Z,99.90
2019-05-17T20:58:18.648Z,99.90
2019-05-17T21:00:51.919Z,99.90
2019-05-17T21:03:23.336Z,99.90
2019-05-17T21:05:56.937Z,99.90
2019-05-17T21:08:46.806Z,99.90
2019-05-17T21:11:20.203Z,99.90
2019-05-17T21:13:54.585Z,99.90
2019-05-17T21:16:26.883Z,99.90
2019-05-17T21:18:58.288Z,99.90
2019-05-17T21:21:33.329Z,99.90
2019-05-17T21:24:12.727Z,99.90
2019-05-17T21:26:43.873Z,99.90
2019-05-17T21:29:15.882Z,99.90
2019-05-17T21:31:56.446Z,99.90
2019-05-17T21:34:32.005Z,99.90
2019-05-17T21:37:03.145Z,99.90
2019-05-17T21:39:34.307Z,99.90
2019-05-17T21:42:05.936Z,99.90
2019-05-17T21:44:39.010Z,99.90
2019-05-17T21:47:11.510Z,99.90
2019-05-17T21:49:43.581Z,99.90
2019-05-17T21:52:14.876Z,99.90
2019-05-17T21:54:47.048Z,99.90
2019-05-17T21:57:21.293Z,99.90
2019-05-17T21:59:52.679Z,99.90
2019-05-17T22:02:23.884Z,99.90
2019-05-17T22:04:57.662Z,99.90
2019-05-17T22:07:28.682Z,99.90
2019-05-17T22:09:59.487Z,99.90
2019-05-17T22:12:31.542Z,99.90
2019-05-17T22:15:03.120Z,99.90
2019-05-17T22:17:34.882Z,99.90
2019-05-17T22:20:06.618Z,99.90
2019-05-17T22:22:38.807Z,99.90
2019-05-17T22:25:09.664Z,99.90
2019-05-17T22:27:40.835Z,99.90
2019-05-17T22:30:14.143Z,99.90
2019-05-17T22:32:47.241Z,99.90
2019-05-17T22:35:19.197Z,99.90
2019-05-17T22:37:50.287Z,99.90
2019-05-17T22:40:21.510Z,99.90
2019-05-17T22:42:54.072Z,99.90
2019-05-17T22:45:24.898Z,99.90
2019-05-17T22:47:55.710Z,99.90
2019-05-17T22:50:26.708Z,99.90
2019-05-17T22:52:58.573Z,99.90
2019-05-17T22:55:29.441Z,99.90
2019-05-17T22:58:01.298Z,99.90
2019-05-17T23:00:33.863Z,99.90
2019-05-17T23:03:04.974Z,99.90
2019-05-17T23:05:35.994Z,99.90
2019-05-17T23:08:07.067Z,99.90
2019-05-17T23:10:37.992Z,99.90
2019-05-17T23:13:09.973Z,99.90
2019-05-17T23:16:02.850Z,99.90
2019-05-17T23:18:34.680Z,99.90
2019-05-17T23:21:05.908Z,99.90
2019-05-17T23:23:37.858Z,99.90
2019-05-17T23:26:12.485Z,99.90
2019-05-17T23:28:55.842Z,99.90
2019-05-17T23:31:26.859Z,99.90
2019-05-17T23:34:03.379Z,99.90
2019-05-17T23:36:35.780Z,99.90
2019-05-17T23:39:07.533Z,99.90
2019-05-17T23:41:38.729Z,99.90
2019-05-17T23:44:09.787Z,99.90
2019-05-17T23:47:06.147Z,99.90
2019-05-17T23:49:41.153Z,99.90
2019-05-17T23:52:15.648Z,99.90
2019-05-17T23:54:48.056Z,99.90
2019-05-17T23:57:31.271Z,99.90
